sensor_id;sensor_type;location;lat;lon;timestamp;P1;durP1;ratioP1;P2;durP2;ratioP2
40793;SDS011;26502;51.886;15.604;2023-04-22T00:04:41;91.90;;;37.40;;
40793;SDS011;26502;51.886;15.604;2023-04-22T00:09:48;60.20;;;26.00;;
40793;SDS011;26502;51.886;15.604;2023-04-22T00:14:55;23.40;;;11.20;;
40793;SDS011;26502;51.886;15.604;2023-04-22T00:20:01;19.30;;;9.30;;
40793;SDS011;26502;51.886;15.604;2023-04-22T00:25:08;29.10;;;13.50;;
40793;SDS011;26502;51.886;15.604;2023-04-22T00:30:14;18.80;;;11.50;;
40793;SDS011;26502;51.886;15.604;2023-04-22T00:35:20;18.70;;;10.60;;
40793;SDS011;26502;51.886;15.604;2023-04-22T00:40:27;30.70;;;15.10;;
40793;SDS011;26502;51.886;15.604;2023-04-22T00:45:34;36.20;;;19.80;;
40793;SDS011;26502;51.886;15.604;2023-04-22T00:50:43;23.00;;;14.10;;
40793;SDS011;26502;51.886;15.604;2023-04-22T00:55:49;22.60;;;12.40;;
40793;SDS011;26502;51.886;15.604;2023-04-22T01:00:55;17.70;;;10.40;;
40793;SDS011;26502;51.886;15.604;2023-04-22T01:06:02;22.70;;;11.60;;
40793;SDS011;26502;51.886;15.604;2023-04-22T01:11:09;15.00;;;9.10;;
40793;SDS011;26502;51.886;15.604;2023-04-22T01:16:17;18.50;;;9.40;;
40793;SDS011;26502;51.886;15.604;2023-04-22T01:21:25;14.00;;;8.90;;
40793;SDS011;26502;51.886;15.604;2023-04-22T01:26:32;20.80;;;10.50;;
40793;SDS011;26502;51.886;15.604;2023-04-22T01:31:39;17.70;;;10.30;;
40793;SDS011;26502;51.886;15.604;2023-04-22T01:36:45;15.50;;;9.50;;
40793;SDS011;26502;51.886;15.604;2023-04-22T01:41:51;16.80;;;10.80;;
40793;SDS011;26502;51.886;15.604;2023-04-22T01:46:59;19.20;;;10.50;;
40793;SDS011;26502;51.886;15.604;2023-04-22T01:52:05;15.20;;;10.20;;
40793;SDS011;26502;51.886;15.604;2023-04-22T01:57:11;18.20;;;10.70;;
40793;SDS011;26502;51.886;15.604;2023-04-22T02:02:18;19.90;;;10.30;;
40793;SDS011;26502;51.886;15.604;2023-04-22T02:07:24;19.60;;;9.80;;
40793;SDS011;26502;51.886;15.604;2023-04-22T02:12:30;16.60;;;9.40;;
40793;SDS011;26502;51.886;15.604;2023-04-22T02:17:37;13.30;;;9.30;;
40793;SDS011;26502;51.886;15.604;2023-04-22T02:22:44;14.70;;;9.50;;
40793;SDS011;26502;51.886;15.604;2023-04-22T02:27:52;17.60;;;10.70;;
40793;SDS011;26502;51.886;15.604;2023-04-22T02:32:59;22.00;;;11.40;;
40793;SDS011;26502;51.886;15.604;2023-04-22T02:38:05;16.60;;;10.10;;
40793;SDS011;26502;51.886;15.604;2023-04-22T02:43:12;17.10;;;10.10;;
40793;SDS011;26502;51.886;15.604;2023-04-22T02:48:19;16.90;;;10.70;;
40793;SDS011;26502;51.886;15.604;2023-04-22T02:53:26;13.00;;;9.10;;
40793;SDS011;26502;51.886;15.604;2023-04-22T02:58:33;14.20;;;9.90;;
40793;SDS011;26502;51.886;15.604;2023-04-22T03:03:39;14.60;;;10.70;;
40793;SDS011;26502;51.886;15.604;2023-04-22T03:08:46;14.80;;;9.40;;
40793;SDS011;26502;51.886;15.604;2023-04-22T03:13:52;18.20;;;10.60;;
40793;SDS011;26502;51.886;15.604;2023-04-22T03:18:58;21.00;;;10.70;;
40793;SDS011;26502;51.886;15.604;2023-04-22T03:24:05;22.80;;;10.60;;
40793;SDS011;26502;51.886;15.604;2023-04-22T03:29:12;17.60;;;11.00;;
40793;SDS011;26502;51.886;15.604;2023-04-22T03:34:19;15.30;;;10.50;;
40793;SDS011;26502;51.886;15.604;2023-04-22T03:39:26;18.70;;;11.10;;
40793;SDS011;26502;51.886;15.604;2023-04-22T03:44:32;19.90;;;12.10;;
40793;SDS011;26502;51.886;15.604;2023-04-22T03:49:39;18.70;;;12.40;;
40793;SDS011;26502;51.886;15.604;2023-04-22T03:54:45;20.70;;;12.60;;
40793;SDS011;26502;51.886;15.604;2023-04-22T03:59:52;20.60;;;12.10;;
40793;SDS011;26502;51.886;15.604;2023-04-22T04:04:58;19.60;;;11.20;;
40793;SDS011;26502;51.886;15.604;2023-04-22T04:10:07;17.40;;;12.40;;
40793;SDS011;26502;51.886;15.604;2023-04-22T04:15:14;19.50;;;12.60;;
40793;SDS011;26502;51.886;15.604;2023-04-22T04:20:22;19.00;;;12.80;;
40793;SDS011;26502;51.886;15.604;2023-04-22T04:25:29;21.00;;;13.10;;
40793;SDS011;26502;51.886;15.604;2023-04-22T04:30:41;20.20;;;12.60;;
40793;SDS011;26502;51.886;15.604;2023-04-22T04:35:48;20.30;;;12.50;;
40793;SDS011;26502;51.886;15.604;2023-04-22T04:40:56;20.90;;;14.10;;
40793;SDS011;26502;51.886;15.604;2023-04-22T04:46:05;19.20;;;12.30;;
40793;SDS011;26502;51.886;15.604;2023-04-22T04:51:13;22.40;;;12.10;;
40793;SDS011;26502;51.886;15.604;2023-04-22T04:56:25;22.20;;;14.10;;
40793;SDS011;26502;51.886;15.604;2023-04-22T05:01:31;22.50;;;13.80;;
40793;SDS011;26502;51.886;15.604;2023-04-22T05:06:42;18.10;;;12.30;;
40793;SDS011;26502;51.886;15.604;2023-04-22T05:11:51;25.10;;;14.80;;
40793;SDS011;26502;51.886;15.604;2023-04-22T05:16:59;26.30;;;14.00;;
40793;SDS011;26502;51.886;15.604;2023-04-22T05:22:07;24.60;;;14.60;;
40793;SDS011;26502;51.886;15.604;2023-04-22T05:27:13;23.80;;;15.80;;
40793;SDS011;26502;51.886;15.604;2023-04-22T05:32:20;23.40;;;14.50;;
40793;SDS011;26502;51.886;15.604;2023-04-22T05:37:27;23.70;;;15.50;;
40793;SDS011;26502;51.886;15.604;2023-04-22T05:42:35;25.70;;;17.80;;
40793;SDS011;26502;51.886;15.604;2023-04-22T05:47:42;25.20;;;16.60;;
40793;SDS011;26502;51.886;15.604;2023-04-22T05:52:49;22.10;;;15.40;;
40793;SDS011;26502;51.886;15.604;2023-04-22T05:57:55;23.60;;;16.00;;
40793;SDS011;26502;51.886;15.604;2023-04-22T06:03:25;22.40;;;15.30;;
40793;SDS011;26502;51.886;15.604;2023-04-22T06:08:33;24.00;;;15.20;;
40793;SDS011;26502;51.886;15.604;2023-04-22T06:13:39;22.80;;;15.60;;
40793;SDS011;26502;51.886;15.604;2023-04-22T06:18:46;23.80;;;15.90;;
40793;SDS011;26502;51.886;15.604;2023-04-22T06:23:53;25.70;;;16.30;;
40793;SDS011;26502;51.886;15.604;2023-04-22T06:28:59;27.80;;;15.90;;
40793;SDS011;26502;51.886;15.604;2023-04-22T06:34:08;21.50;;;15.90;;
40793;SDS011;26502;51.886;15.604;2023-04-22T06:39:14;25.30;;;15.90;;
40793;SDS011;26502;51.886;15.604;2023-04-22T06:44:40;25.00;;;16.10;;
40793;SDS011;26502;51.886;15.604;2023-04-22T06:49:57;21.50;;;15.20;;
40793;SDS011;26502;51.886;15.604;2023-04-22T06:55:13;19.60;;;13.60;;
40793;SDS011;26502;51.886;15.604;2023-04-22T07:00:20;24.30;;;15.20;;
40793;SDS011;26502;51.886;15.604;2023-04-22T07:05:27;19.60;;;13.40;;
40793;SDS011;26502;51.886;15.604;2023-04-22T07:10:36;22.20;;;14.50;;
40793;SDS011;26502;51.886;15.604;2023-04-22T07:16:06;22.70;;;13.90;;
40793;SDS011;26502;51.886;15.604;2023-04-22T07:21:13;19.20;;;12.90;;
40793;SDS011;26502;51.886;15.604;2023-04-22T07:26:19;16.90;;;12.80;;
40793;SDS011;26502;51.886;15.604;2023-04-22T07:31:25;20.80;;;13.00;;
40793;SDS011;26502;51.886;15.604;2023-04-22T07:36:31;17.00;;;12.40;;
40793;SDS011;26502;51.886;15.604;2023-04-22T07:41:38;20.10;;;13.00;;
40793;SDS011;26502;51.886;15.604;2023-04-22T07:46:51;16.40;;;12.30;;
40793;SDS011;26502;51.886;15.604;2023-04-22T07:51:57;16.30;;;12.00;;
40793;SDS011;26502;51.886;15.604;2023-04-22T07:57:05;22.50;;;11.70;;
40793;SDS011;26502;51.886;15.604;2023-04-22T08:02:11;12.30;;;10.60;;
40793;SDS011;26502;51.886;15.604;2023-04-22T08:07:17;15.30;;;10.80;;
40793;SDS011;26502;51.886;15.604;2023-04-22T08:12:23;13.20;;;10.40;;
40793;SDS011;26502;51.886;15.604;2023-04-22T08:17:30;16.60;;;10.80;;
40793;SDS011;26502;51.886;15.604;2023-04-22T08:22:37;20.90;;;11.00;;
40793;SDS011;26502;51.886;15.604;2023-04-22T08:27:44;16.60;;;10.20;;
40793;SDS011;26502;51.886;15.604;2023-04-22T08:32:52;16.90;;;9.70;;
40793;SDS011;26502;51.886;15.604;2023-04-22T08:37:58;12.10;;;8.40;;
40793;SDS011;26502;51.886;15.604;2023-04-22T08:43:05;14.00;;;8.60;;
40793;SDS011;26502;51.886;15.604;2023-04-22T08:48:12;12.60;;;8.20;;
40793;SDS011;26502;51.886;15.604;2023-04-22T08:53:20;14.40;;;7.70;;
40793;SDS011;26502;51.886;15.604;2023-04-22T08:58:27;12.70;;;7.10;;
40793;SDS011;26502;51.886;15.604;2023-04-22T09:03:35;10.60;;;7.50;;
40793;SDS011;26502;51.886;15.604;2023-04-22T09:08:44;11.10;;;7.60;;
40793;SDS011;26502;51.886;15.604;2023-04-22T09:13:52;9.00;;;6.40;;
40793;SDS011;26502;51.886;15.604;2023-04-22T09:18:59;9.40;;;6.40;;
40793;SDS011;26502;51.886;15.604;2023-04-22T09:24:06;7.30;;;5.70;;
40793;SDS011;26502;51.886;15.604;2023-04-22T09:29:14;7.90;;;5.10;;
40793;SDS011;26502;51.886;15.604;2023-04-22T09:34:21;10.80;;;5.00;;
40793;SDS011;26502;51.886;15.604;2023-04-22T09:39:28;10.50;;;4.90;;
40793;SDS011;26502;51.886;15.604;2023-04-22T09:44:34;5.80;;;4.60;;
40793;SDS011;26502;51.886;15.604;2023-04-22T09:49:42;6.30;;;4.60;;
40793;SDS011;26502;51.886;15.604;2023-04-22T09:54:51;7.00;;;4.60;;
40793;SDS011;26502;51.886;15.604;2023-04-22T10:00:00;9.80;;;5.00;;
40793;SDS011;26502;51.886;15.604;2023-04-22T10:05:09;6.40;;;5.00;;
40793;SDS011;26502;51.886;15.604;2023-04-22T10:10:18;8.40;;;4.80;;
40793;SDS011;26502;51.886;15.604;2023-04-22T10:15:24;6.80;;;4.50;;
40793;SDS011;26502;51.886;15.604;2023-04-22T10:20:36;7.50;;;4.90;;
40793;SDS011;26502;51.886;15.604;2023-04-22T10:25:44;7.10;;;4.70;;
40793;SDS011;26502;51.886;15.604;2023-04-22T10:30:53;9.90;;;4.50;;
40793;SDS011;26502;51.886;15.604;2023-04-22T10:36:06;5.80;;;4.10;;
40793;SDS011;26502;51.886;15.604;2023-04-22T10:41:15;5.80;;;4.50;;
40793;SDS011;26502;51.886;15.604;2023-04-22T10:52:01;7.90;;;4.80;;
40793;SDS011;26502;51.886;15.604;2023-04-22T10:57:09;9.20;;;4.40;;
40793;SDS011;26502;51.886;15.604;2023-04-22T11:02:17;7.30;;;5.80;;
40793;SDS011;26502;51.886;15.604;2023-04-22T11:07:30;6.00;;;4.40;;
40793;SDS011;26502;51.886;15.604;2023-04-22T11:12:42;5.50;;;4.70;;
40793;SDS011;26502;51.886;15.604;2023-04-22T11:17:53;5.60;;;4.50;;
40793;SDS011;26502;51.886;15.604;2023-04-22T11:23:00;8.10;;;5.10;;
40793;SDS011;26502;51.886;15.604;2023-04-22T11:28:07;7.20;;;5.00;;
40793;SDS011;26502;51.886;15.604;2023-04-22T11:33:14;8.30;;;4.90;;
40793;SDS011;26502;51.886;15.604;2023-04-22T11:38:21;10.90;;;4.90;;
40793;SDS011;26502;51.886;15.604;2023-04-22T11:43:27;4.70;;;4.30;;
40793;SDS011;26502;51.886;15.604;2023-04-22T11:48:33;8.60;;;4.70;;
40793;SDS011;26502;51.886;15.604;2023-04-22T11:53:46;6.00;;;4.00;;
40793;SDS011;26502;51.886;15.604;2023-04-22T11:58:55;5.90;;;4.60;;
40793;SDS011;26502;51.886;15.604;2023-04-22T12:04:02;7.70;;;4.70;;
40793;SDS011;26502;51.886;15.604;2023-04-22T12:09:09;6.90;;;4.70;;
40793;SDS011;26502;51.886;15.604;2023-04-22T12:14:15;8.10;;;4.80;;
40793;SDS011;26502;51.886;15.604;2023-04-22T12:19:24;5.60;;;4.10;;
40793;SDS011;26502;51.886;15.604;2023-04-22T12:24:30;6.80;;;4.20;;
40793;SDS011;26502;51.886;15.604;2023-04-22T12:29:37;5.90;;;4.90;;
40793;SDS011;26502;51.886;15.604;2023-04-22T12:34:54;5.00;;;3.70;;
40793;SDS011;26502;51.886;15.604;2023-04-22T12:40:00;10.10;;;4.50;;
40793;SDS011;26502;51.886;15.604;2023-04-22T12:45:08;7.80;;;3.90;;
40793;SDS011;26502;51.886;15.604;2023-04-22T12:50:14;7.70;;;4.10;;
40793;SDS011;26502;51.886;15.604;2023-04-22T12:55:21;5.50;;;4.20;;
40793;SDS011;26502;51.886;15.604;2023-04-22T13:00:27;7.30;;;4.50;;
40793;SDS011;26502;51.886;15.604;2023-04-22T13:05:34;6.80;;;3.60;;
40793;SDS011;26502;51.886;15.604;2023-04-22T13:10:41;15.70;;;4.80;;
40793;SDS011;26502;51.886;15.604;2023-04-22T13:15:48;5.80;;;4.40;;
40793;SDS011;26502;51.886;15.604;2023-04-22T13:20:55;11.90;;;4.40;;
40793;SDS011;26502;51.886;15.604;2023-04-22T13:26:02;6.50;;;4.30;;
40793;SDS011;26502;51.886;15.604;2023-04-22T13:31:08;5.10;;;4.10;;
40793;SDS011;26502;51.886;15.604;2023-04-22T13:36:14;8.40;;;4.10;;
40793;SDS011;26502;51.886;15.604;2023-04-22T13:41:21;5.60;;;4.20;;
40793;SDS011;26502;51.886;15.604;2023-04-22T13:46:28;5.40;;;4.00;;
40793;SDS011;26502;51.886;15.604;2023-04-22T13:51:36;6.30;;;3.90;;
40793;SDS011;26502;51.886;15.604;2023-04-22T13:56:42;5.90;;;3.80;;
40793;SDS011;26502;51.886;15.604;2023-04-22T14:01:48;4.80;;;3.40;;
40793;SDS011;26502;51.886;15.604;2023-04-22T14:06:54;6.00;;;3.80;;
40793;SDS011;26502;51.886;15.604;2023-04-22T14:12:03;6.60;;;4.60;;
40793;SDS011;26502;51.886;15.604;2023-04-22T14:17:10;5.70;;;4.40;;
40793;SDS011;26502;51.886;15.604;2023-04-22T14:22:17;5.30;;;4.30;;
40793;SDS011;26502;51.886;15.604;2023-04-22T14:27:30;8.80;;;4.10;;
40793;SDS011;26502;51.886;15.604;2023-04-22T14:32:36;6.10;;;3.80;;
40793;SDS011;26502;51.886;15.604;2023-04-22T14:37:42;9.20;;;4.30;;
40793;SDS011;26502;51.886;15.604;2023-04-22T14:42:48;5.70;;;3.80;;
40793;SDS011;26502;51.886;15.604;2023-04-22T14:47:55;7.30;;;4.10;;
40793;SDS011;26502;51.886;15.604;2023-04-22T14:53:01;6.20;;;4.50;;
40793;SDS011;26502;51.886;15.604;2023-04-22T14:58:10;5.40;;;4.00;;
40793;SDS011;26502;51.886;15.604;2023-04-22T15:03:16;5.40;;;4.30;;
40793;SDS011;26502;51.886;15.604;2023-04-22T15:08:22;5.70;;;4.10;;
40793;SDS011;26502;51.886;15.604;2023-04-22T15:13:29;7.90;;;4.10;;
40793;SDS011;26502;51.886;15.604;2023-04-22T15:18:35;7.60;;;4.10;;
40793;SDS011;26502;51.886;15.604;2023-04-22T15:23:41;7.70;;;4.40;;
40793;SDS011;26502;51.886;15.604;2023-04-22T15:28:47;5.10;;;3.90;;
40793;SDS011;26502;51.886;15.604;2023-04-22T15:33:54;5.70;;;4.10;;
40793;SDS011;26502;51.886;15.604;2023-04-22T15:39:01;7.00;;;4.30;;
40793;SDS011;26502;51.886;15.604;2023-04-22T15:44:07;7.60;;;4.40;;
40793;SDS011;26502;51.886;15.604;2023-04-22T15:49:14;6.20;;;3.90;;
40793;SDS011;26502;51.886;15.604;2023-04-22T15:54:20;8.00;;;3.90;;
40793;SDS011;26502;51.886;15.604;2023-04-22T15:59:26;7.10;;;4.50;;
40793;SDS011;26502;51.886;15.604;2023-04-22T16:04:32;8.30;;;4.00;;
40793;SDS011;26502;51.886;15.604;2023-04-22T16:09:39;6.40;;;4.20;;
40793;SDS011;26502;51.886;15.604;2023-04-22T16:14:45;5.90;;;4.40;;
40793;SDS011;26502;51.886;15.604;2023-04-22T16:19:52;8.40;;;4.20;;
40793;SDS011;26502;51.886;15.604;2023-04-22T16:24:58;5.20;;;3.90;;
40793;SDS011;26502;51.886;15.604;2023-04-22T16:30:05;9.40;;;4.40;;
40793;SDS011;26502;51.886;15.604;2023-04-22T16:35:13;9.60;;;3.90;;
40793;SDS011;26502;51.886;15.604;2023-04-22T16:40:19;5.70;;;4.10;;
40793;SDS011;26502;51.886;15.604;2023-04-22T16:45:26;6.50;;;4.20;;
40793;SDS011;26502;51.886;15.604;2023-04-22T16:50:32;7.40;;;3.90;;
40793;SDS011;26502;51.886;15.604;2023-04-22T16:55:38;7.00;;;4.10;;
40793;SDS011;26502;51.886;15.604;2023-04-22T17:00:45;9.10;;;4.50;;
40793;SDS011;26502;51.886;15.604;2023-04-22T17:05:53;5.60;;;4.50;;
40793;SDS011;26502;51.886;15.604;2023-04-22T17:10:59;7.70;;;4.80;;
40793;SDS011;26502;51.886;15.604;2023-04-22T17:16:05;11.10;;;4.90;;
40793;SDS011;26502;51.886;15.604;2023-04-22T17:21:12;7.30;;;4.60;;
40793;SDS011;26502;51.886;15.604;2023-04-22T17:26:19;11.30;;;4.40;;
40793;SDS011;26502;51.886;15.604;2023-04-22T17:31:26;7.10;;;4.90;;
40793;SDS011;26502;51.886;15.604;2023-04-22T17:36:33;11.60;;;4.70;;
40793;SDS011;26502;51.886;15.604;2023-04-22T17:41:39;17.20;;;5.80;;
40793;SDS011;26502;51.886;15.604;2023-04-22T17:46:45;53.20;;;34.50;;
40793;SDS011;26502;51.886;15.604;2023-04-22T17:51:51;22.00;;;13.80;;
40793;SDS011;26502;51.886;15.604;2023-04-22T17:56:58;20.70;;;10.40;;
40793;SDS011;26502;51.886;15.604;2023-04-22T18:02:04;15.20;;;8.20;;
40793;SDS011;26502;51.886;15.604;2023-04-22T18:07:11;7.00;;;5.20;;
40793;SDS011;26502;51.886;15.604;2023-04-22T18:12:17;10.00;;;4.80;;
40793;SDS011;26502;51.886;15.604;2023-04-22T18:22:31;9.60;;;6.00;;
40793;SDS011;26502;51.886;15.604;2023-04-22T18:27:37;9.00;;;5.40;;
40793;SDS011;26502;51.886;15.604;2023-04-22T18:32:43;15.70;;;6.30;;
40793;SDS011;26502;51.886;15.604;2023-04-22T18:37:49;8.60;;;6.60;;
40793;SDS011;26502;51.886;15.604;2023-04-22T18:42:58;9.90;;;6.90;;
40793;SDS011;26502;51.886;15.604;2023-04-22T18:48:04;13.60;;;6.30;;
40793;SDS011;26502;51.886;15.604;2023-04-22T18:53:10;6.10;;;5.50;;
40793;SDS011;26502;51.886;15.604;2023-04-22T18:58:17;8.10;;;6.00;;
40793;SDS011;26502;51.886;15.604;2023-04-22T19:03:25;8.50;;;5.50;;
40793;SDS011;26502;51.886;15.604;2023-04-22T19:08:31;7.50;;;5.50;;
40793;SDS011;26502;51.886;15.604;2023-04-22T19:13:37;8.50;;;5.80;;
40793;SDS011;26502;51.886;15.604;2023-04-22T19:18:43;9.30;;;6.00;;
40793;SDS011;26502;51.886;15.604;2023-04-22T19:23:50;13.70;;;5.50;;
40793;SDS011;26502;51.886;15.604;2023-04-22T19:28:58;11.50;;;5.80;;
40793;SDS011;26502;51.886;15.604;2023-04-22T19:34:04;10.30;;;6.10;;
40793;SDS011;26502;51.886;15.604;2023-04-22T19:39:11;8.60;;;6.50;;
40793;SDS011;26502;51.886;15.604;2023-04-22T19:44:19;10.50;;;5.40;;
40793;SDS011;26502;51.886;15.604;2023-04-22T19:49:25;8.60;;;7.10;;
40793;SDS011;26502;51.886;15.604;2023-04-22T19:54:33;11.00;;;8.70;;
40793;SDS011;26502;51.886;15.604;2023-04-22T19:59:42;13.20;;;8.90;;
40793;SDS011;26502;51.886;15.604;2023-04-22T20:04:50;10.50;;;7.80;;
40793;SDS011;26502;51.886;15.604;2023-04-22T20:09:57;11.50;;;7.80;;
40793;SDS011;26502;51.886;15.604;2023-04-22T20:15:05;11.00;;;7.60;;
40793;SDS011;26502;51.886;15.604;2023-04-22T20:20:14;14.10;;;7.80;;
40793;SDS011;26502;51.886;15.604;2023-04-22T20:25:20;10.20;;;7.10;;
40793;SDS011;26502;51.886;15.604;2023-04-22T20:30:27;9.80;;;7.40;;
40793;SDS011;26502;51.886;15.604;2023-04-22T20:35:36;15.60;;;7.20;;
40793;SDS011;26502;51.886;15.604;2023-04-22T20:40:44;11.90;;;6.90;;
40793;SDS011;26502;51.886;15.604;2023-04-22T20:45:50;11.10;;;6.50;;
40793;SDS011;26502;51.886;15.604;2023-04-22T20:50:58;8.70;;;6.20;;
40793;SDS011;26502;51.886;15.604;2023-04-22T20:56:04;16.00;;;7.20;;
40793;SDS011;26502;51.886;15.604;2023-04-22T21:01:11;8.40;;;6.60;;
40793;SDS011;26502;51.886;15.604;2023-04-22T21:06:19;9.30;;;6.90;;
40793;SDS011;26502;51.886;15.604;2023-04-22T21:11:27;14.50;;;7.30;;
40793;SDS011;26502;51.886;15.604;2023-04-22T21:16:35;10.10;;;7.60;;
40793;SDS011;26502;51.886;15.604;2023-04-22T21:21:47;11.60;;;7.40;;
40793;SDS011;26502;51.886;15.604;2023-04-22T21:26:56;8.80;;;7.00;;
40793;SDS011;26502;51.886;15.604;2023-04-22T21:32:03;7.90;;;6.70;;
40793;SDS011;26502;51.886;15.604;2023-04-22T21:37:09;10.10;;;7.10;;
40793;SDS011;26502;51.886;15.604;2023-04-22T21:42:16;9.40;;;7.80;;
40793;SDS011;26502;51.886;15.604;2023-04-22T21:47:22;11.10;;;7.20;;
40793;SDS011;26502;51.886;15.604;2023-04-22T21:52:29;13.70;;;7.70;;
40793;SDS011;26502;51.886;15.604;2023-04-22T21:57:36;14.40;;;7.60;;
40793;SDS011;26502;51.886;15.604;2023-04-22T22:02:42;10.70;;;7.60;;
40793;SDS011;26502;51.886;15.604;2023-04-22T22:07:49;11.80;;;7.80;;
40793;SDS011;26502;51.886;15.604;2023-04-22T22:12:57;10.00;;;7.70;;
40793;SDS011;26502;51.886;15.604;2023-04-22T22:18:04;10.50;;;7.60;;
40793;SDS011;26502;51.886;15.604;2023-04-22T22:23:11;9.90;;;7.90;;
40793;SDS011;26502;51.886;15.604;2023-04-22T22:28:19;13.20;;;7.30;;
40793;SDS011;26502;51.886;15.604;2023-04-22T22:33:25;12.50;;;8.10;;
40793;SDS011;26502;51.886;15.604;2023-04-22T22:38:31;11.40;;;7.90;;
40793;SDS011;26502;51.886;15.604;2023-04-22T22:43:39;10.00;;;7.60;;
40793;SDS011;26502;51.886;15.604;2023-04-22T22:48:45;11.80;;;8.60;;
40793;SDS011;26502;51.886;15.604;2023-04-22T22:53:52;13.90;;;8.50;;
40793;SDS011;26502;51.886;15.604;2023-04-22T22:59:00;14.80;;;8.20;;
40793;SDS011;26502;51.886;15.604;2023-04-22T23:04:06;12.40;;;8.80;;
40793;SDS011;26502;51.886;15.604;2023-04-22T23:09:12;10.10;;;7.80;;
40793;SDS011;26502;51.886;15.604;2023-04-22T23:14:21;14.00;;;8.50;;
40793;SDS011;26502;51.886;15.604;2023-04-22T23:19:30;11.00;;;7.90;;
40793;SDS011;26502;51.886;15.604;2023-04-22T23:24:38;13.00;;;7.90;;
40793;SDS011;26502;51.886;15.604;2023-04-22T23:29:45;11.60;;;7.70;;
40793;SDS011;26502;51.886;15.604;2023-04-22T23:34:53;10.30;;;7.50;;
40793;SDS011;26502;51.886;15.604;2023-04-22T23:40:01;13.60;;;7.50;;
40793;SDS011;26502;51.886;15.604;2023-04-22T23:45:09;11.10;;;7.80;;
40793;SDS011;26502;51.886;15.604;2023-04-22T23:50:15;13.00;;;7.40;;
40793;SDS011;26502;51.886;15.604;2023-04-22T23:55:23;11.90;;;8.70;;
